createdAt,value
2022-07-29T00:00:33.044Z,22.00
2022-07-29T00:03:00.468Z,21.90
2022-07-29T00:05:27.935Z,21.80
2022-07-29T00:07:55.371Z,21.80
2022-07-29T00:10:23.434Z,21.80
2022-07-29T00:12:55.353Z,21.80
2022-07-29T00:15:23.145Z,21.70
2022-07-29T00:17:53.401Z,21.70
2022-07-29T00:20:20.819Z,21.60
2022-07-29T00:22:48.355Z,21.60
2022-07-29T00:25:15.846Z,21.60
2022-07-29T00:27:43.166Z,21.70
2022-07-29T00:30:10.708Z,21.70
2022-07-29T00:32:40.122Z,21.60
2022-07-29T00:35:29.187Z,21.60
2022-07-29T00:37:57.216Z,21.50
2022-07-29T00:40:25.167Z,21.40
2022-07-29T00:42:55.551Z,21.30
2022-07-29T00:45:23.254Z,21.40
2022-07-29T00:47:51.041Z,21.20
2022-07-29T00:50:21.469Z,21.30
2022-07-29T00:52:48.897Z,21.30
2022-07-29T00:55:17.882Z,21.30
2022-07-29T00:57:46.934Z,21.30
2022-07-29T01:00:18.696Z,21.30
2022-07-29T01:02:49.194Z,21.20
2022-07-29T01:05:19.331Z,21.10
2022-07-29T01:07:47.731Z,21.20
2022-07-29T01:10:16.939Z,21.20
2022-07-29T01:12:46.151Z,21.20
2022-07-29T01:15:13.826Z,21.30
2022-07-29T01:18:22.165Z,21.10
2022-07-29T01:21:22.620Z,21.00
2022-07-29T01:24:13.143Z,21.00
2022-07-29T01:26:53.240Z,21.00
2022-07-29T01:29:47.567Z,21.10
2022-07-29T01:32:29.537Z,21.10
2022-07-29T01:35:06.751Z,21.10
2022-07-29T01:38:06.197Z,21.10
2022-07-29T01:40:50.106Z,21.00
2022-07-29T01:43:28.157Z,20.90
2022-07-29T01:46:01.479Z,20.90
2022-07-29T01:48:54.141Z,20.90
2022-07-29T01:51:38.295Z,21.00
2022-07-29T01:54:08.234Z,20.90
2022-07-29T01:56:37.395Z,20.90
2022-07-29T01:59:07.081Z,20.90
2022-07-29T02:01:37.678Z,20.90
2022-07-29T02:04:10.861Z,20.80
2022-07-29T02:06:44.323Z,20.80
2022-07-29T02:09:14.928Z,20.60
2022-07-29T02:11:48.658Z,20.60
2022-07-29T02:14:21.239Z,20.50
2022-07-29T02:16:55.272Z,20.50
2022-07-29T02:19:28.055Z,20.50
2022-07-29T02:22:00.080Z,20.60
2022-07-29T02:24:32.008Z,20.60
2022-07-29T02:27:02.504Z,20.50
2022-07-29T02:29:33.496Z,20.50
2022-07-29T02:32:06.926Z,20.40
2022-07-29T02:34:34.682Z,20.30
2022-07-29T02:37:04.263Z,20.30
2022-07-29T02:39:32.982Z,20.20
2022-07-29T02:42:06.769Z,20.20
2022-07-29T02:44:36.071Z,20.20
2022-07-29T02:47:08.907Z,20.20
2022-07-29T02:49:58.971Z,20.10
2022-07-29T02:52:32.720Z,20.10
2022-07-29T02:55:06.977Z,20.10
2022-07-29T02:57:57.477Z,20.00
2022-07-29T03:00:34.476Z,19.90
2022-07-29T03:03:05.098Z,19.90
2022-07-29T03:05:33.124Z,19.90
2022-07-29T03:08:05.369Z,19.80
2022-07-29T03:10:33.816Z,19.80
2022-07-29T03:13:04.421Z,19.80
2022-07-29T03:15:32.798Z,19.80
2022-07-29T03:18:00.998Z,19.70
2022-07-29T03:20:30.886Z,19.70
2022-07-29T03:23:00.393Z,19.70
2022-07-29T03:25:30.163Z,19.70
2022-07-29T03:27:58.184Z,19.60
2022-07-29T03:30:28.090Z,19.60
2022-07-29T03:32:58.926Z,19.50
2022-07-29T03:35:26.362Z,19.30
2022-07-29T03:37:53.764Z,19.20
2022-07-29T03:40:34.095Z,19.20
2022-07-29T03:43:03.733Z,19.20
2022-07-29T03:45:32.107Z,19.10
2022-07-29T03:48:06.593Z,19.10
2022-07-29T03:50:39.173Z,19.10
2022-07-29T03:53:06.911Z,19.10
2022-07-29T03:55:42.137Z,19.20
2022-07-29T03:58:13.612Z,19.20
2022-07-29T04:00:44.952Z,19.20
2022-07-29T04:03:15.787Z,19.20
2022-07-29T04:05:43.996Z,19.10
2022-07-29T04:08:11.742Z,19.00
2022-07-29T04:10:39.756Z,18.90
2022-07-29T04:13:07.573Z,18.80
2022-07-29T04:15:34.985Z,18.70
2022-07-29T04:18:02.679Z,18.60
2022-07-29T04:20:31.060Z,18.60
2022-07-29T04:22:58.831Z,18.60
2022-07-29T04:25:26.482Z,18.50
2022-07-29T04:28:02.562Z,18.40
2022-07-29T04:30:32.017Z,18.50
2022-07-29T04:33:05.642Z,18.50
2022-07-29T04:35:38.670Z,18.50
2022-07-29T04:38:15.800Z,18.60
2022-07-29T04:40:47.093Z,18.50
2022-07-29T04:43:15.977Z,18.40
2022-07-29T04:45:43.422Z,18.50
2022-07-29T04:48:13.846Z,18.50
2022-07-29T04:50:43.393Z,18.40
2022-07-29T04:53:10.990Z,18.50
2022-07-29T04:55:41.132Z,18.60
2022-07-29T04:58:08.681Z,18.60
2022-07-29T05:00:37.901Z,18.60
2022-07-29T05:03:05.420Z,18.60
2022-07-29T05:05:32.853Z,18.60
2022-07-29T05:08:01.029Z,18.50
2022-07-29T05:10:29.076Z,18.40
2022-07-29T05:12:56.380Z,18.50
2022-07-29T05:15:23.638Z,18.60
2022-07-29T05:17:53.791Z,18.60
2022-07-29T05:20:27.142Z,18.60
2022-07-29T05:22:55.648Z,18.70
2022-07-29T05:25:22.992Z,18.80
2022-07-29T05:27:51.034Z,18.80
2022-07-29T05:30:21.823Z,18.80
2022-07-29T05:32:49.217Z,18.90
2022-07-29T05:35:19.556Z,19.00
2022-07-29T05:37:49.133Z,19.00
2022-07-29T05:40:19.566Z,19.10
2022-07-29T05:42:47.314Z,19.20
2022-07-29T05:45:15.146Z,19.20
2022-07-29T05:47:42.386Z,19.30
2022-07-29T05:50:11.527Z,19.40
2022-07-29T05:52:38.945Z,19.50
2022-07-29T05:55:09.618Z,19.60
2022-07-29T05:57:40.351Z,19.70
2022-07-29T06:00:08.703Z,19.80
2022-07-29T06:02:36.096Z,19.50
2022-07-29T06:05:04.023Z,19.50
2022-07-29T06:07:33.906Z,19.80
2022-07-29T06:10:04.292Z,20.00
2022-07-29T06:12:34.190Z,20.30
2022-07-29T06:15:02.093Z,20.40
2022-07-29T06:17:30.013Z,20.40
2022-07-29T06:20:02.285Z,20.50
2022-07-29T06:22:30.014Z,20.60
2022-07-29T06:24:57.309Z,20.70
2022-07-29T06:27:24.633Z,20.70
2022-07-29T06:29:53.221Z,20.70
2022-07-29T06:32:22.795Z,20.70
2022-07-29T06:34:51.074Z,20.70
2022-07-29T06:37:18.947Z,20.80
2022-07-29T06:39:47.029Z,21.00
2022-07-29T06:42:16.925Z,21.20
2022-07-29T06:44:46.824Z,21.40
2022-07-29T06:47:17.292Z,21.50
2022-07-29T06:49:46.695Z,21.70
2022-07-29T06:52:14.321Z,21.70
2022-07-29T06:54:48.789Z,22.00
2022-07-29T06:57:16.041Z,21.90
2022-07-29T06:59:43.765Z,21.90
2022-07-29T07:02:11.239Z,22.00
2022-07-29T07:04:41.841Z,22.30
2022-07-29T07:07:11.469Z,22.80
2022-07-29T07:09:40.414Z,23.00
2022-07-29T07:12:10.791Z,23.10
2022-07-29T07:14:38.153Z,23.20
2022-07-29T07:17:05.654Z,23.30
2022-07-29T07:19:32.956Z,23.60
2022-07-29T07:22:00.296Z,23.90
2022-07-29T07:24:28.840Z,24.30
2022-07-29T07:26:56.224Z,24.50
2022-07-29T07:29:26.389Z,24.80
2022-07-29T07:32:00.882Z,25.10
2022-07-29T07:34:29.710Z,25.30
2022-07-29T07:37:00.017Z,25.50
2022-07-29T07:39:32.420Z,25.70
2022-07-29T07:42:02.448Z,25.90
2022-07-29T07:44:29.759Z,25.70
2022-07-29T07:46:57.116Z,26.00
2022-07-29T07:49:31.238Z,26.40
2022-07-29T07:52:00.792Z,26.70
2022-07-29T07:54:28.239Z,27.00
2022-07-29T07:56:58.371Z,27.40
2022-07-29T07:59:26.577Z,27.80
2022-07-29T08:01:55.668Z,28.20
2022-07-29T08:04:28.719Z,28.20
2022-07-29T08:06:57.160Z,28.50
2022-07-29T08:09:30.356Z,28.30
2022-07-29T08:12:04.616Z,28.50
2022-07-29T08:14:32.436Z,29.10
2022-07-29T08:17:00.506Z,29.40
2022-07-29T08:19:28.840Z,29.70
2022-07-29T08:21:56.660Z,30.00
2022-07-29T08:24:59.515Z,30.40
2022-07-29T08:27:43.438Z,30.20
2022-07-29T08:30:13.903Z,30.40
2022-07-29T08:32:53.634Z,30.50
2022-07-29T08:35:25.969Z,30.60
2022-07-29T08:37:54.415Z,30.30
2022-07-29T08:40:30.565Z,30.60
2022-07-29T08:43:09.586Z,30.80
2022-07-29T08:45:48.004Z,30.70
2022-07-29T08:48:25.756Z,30.80
2022-07-29T08:50:57.510Z,30.80
2022-07-29T08:53:27.682Z,31.10
2022-07-29T08:55:55.892Z,31.10
2022-07-29T08:58:25.319Z,31.40
2022-07-29T09:00:58.230Z,31.70
2022-07-29T09:03:28.215Z,32.00
2022-07-29T09:05:55.974Z,32.00
2022-07-29T09:08:24.312Z,32.30
2022-07-29T09:10:55.364Z,32.30
2022-07-29T09:13:25.864Z,31.60
2022-07-29T09:15:53.862Z,31.10
2022-07-29T09:18:42.854Z,31.40
2022-07-29T09:21:34.771Z,31.50
2022-07-29T09:24:15.514Z,31.40
2022-07-29T09:26:47.597Z,31.90
2022-07-29T09:29:17.689Z,31.60
2022-07-29T09:31:48.147Z,31.70
2022-07-29T09:34:37.363Z,31.90
2022-07-29T09:37:07.039Z,32.50
2022-07-29T09:39:37.393Z,32.10
2022-07-29T09:42:08.208Z,31.30
2022-07-29T09:44:47.165Z,31.20
2022-07-29T09:47:19.753Z,30.90
2022-07-29T09:50:01.169Z,31.60
2022-07-29T09:52:32.711Z,32.10
2022-07-29T09:55:13.575Z,31.40
2022-07-29T09:57:46.601Z,31.00
2022-07-29T10:00:19.139Z,31.80
2022-07-29T10:02:48.356Z,32.50
2022-07-29T10:05:27.105Z,32.90
2022-07-29T10:08:04.641Z,33.30
2022-07-29T10:10:34.870Z,33.00
2022-07-29T10:13:13.441Z,33.20
2022-07-29T10:15:47.675Z,33.60
2022-07-29T10:18:20.961Z,33.70
2022-07-29T10:20:51.050Z,34.00
2022-07-29T10:23:18.396Z,34.00
2022-07-29T10:25:47.529Z,33.70
2022-07-29T10:28:16.809Z,34.20
2022-07-29T10:30:46.098Z,34.70
2022-07-29T10:33:39.774Z,34.40
2022-07-29T10:36:31.670Z,34.40
2022-07-29T10:39:13.297Z,34.60
2022-07-29T10:42:29.635Z,34.70
2022-07-29T10:45:04.448Z,35.10
2022-07-29T10:47:35.412Z,33.80
2022-07-29T10:50:13.993Z,34.40
2022-07-29T10:52:51.229Z,34.60
2022-07-29T10:55:45.431Z,35.10
2022-07-29T10:58:24.713Z,35.50
2022-07-29T11:00:57.629Z,35.50
2022-07-29T11:03:49.292Z,35.70
2022-07-29T11:06:26.325Z,35.00
2022-07-29T11:09:18.247Z,35.00
2022-07-29T11:11:51.587Z,35.00
2022-07-29T11:14:20.183Z,34.20
2022-07-29T11:17:09.177Z,34.60
2022-07-29T11:19:44.730Z,35.10
2022-07-29T11:22:37.219Z,35.50
2022-07-29T11:25:17.672Z,35.50
2022-07-29T11:27:46.792Z,35.20
2022-07-29T11:30:21.526Z,35.20
2022-07-29T11:32:52.649Z,35.50
2022-07-29T11:35:37.073Z,35.80
2022-07-29T11:41:25.519Z,36.10
2022-07-29T11:44:01.558Z,35.80
2022-07-29T11:46:48.283Z,35.20
2022-07-29T11:49:32.294Z,35.00
2022-07-29T11:52:04.898Z,35.10
2022-07-29T11:57:35.958Z,35.30
2022-07-29T12:00:12.441Z,35.40
2022-07-29T12:02:48.227Z,35.40
2022-07-29T12:05:35.912Z,34.90
2022-07-29T12:07:03.466Z,35.90
2022-07-29T12:08:12.589Z,34.40
2022-07-29T12:10:44.673Z,33.80
2022-07-29T12:13:13.365Z,33.90
2022-07-29T12:15:46.964Z,34.30
2022-07-29T12:18:24.299Z,34.80
2022-07-29T12:20:59.541Z,34.90
2022-07-29T12:23:34.929Z,34.50
2022-07-29T12:26:10.579Z,34.20
2022-07-29T12:28:39.831Z,33.70
2022-07-29T12:31:14.811Z,33.80
2022-07-29T12:33:42.841Z,34.20
2022-07-29T12:36:17.561Z,34.40
2022-07-29T12:38:46.353Z,34.50
2022-07-29T12:41:16.353Z,34.60
2022-07-29T12:43:54.730Z,34.80
2022-07-29T12:46:23.233Z,34.70
2022-07-29T12:48:58.716Z,34.40
2022-07-29T12:51:41.783Z,34.10
2022-07-29T12:54:17.104Z,33.60
2022-07-29T12:56:45.997Z,33.50
2022-07-29T12:59:14.552Z,33.90
2022-07-29T13:01:42.080Z,34.20
2022-07-29T13:04:09.468Z,34.20
2022-07-29T13:06:49.602Z,34.20
2022-07-29T13:09:24.903Z,34.50
2022-07-29T13:11:54.134Z,34.30
2022-07-29T13:14:33.966Z,34.50
2022-07-29T13:17:16.670Z,34.50
2022-07-29T13:19:48.033Z,34.70
2022-07-29T13:22:21.974Z,34.00
2022-07-29T13:24:57.857Z,33.10
2022-07-29T13:27:28.102Z,32.80
2022-07-29T13:30:00.764Z,32.50
2022-07-29T13:32:29.881Z,32.50
2022-07-29T13:34:58.903Z,32.30
2022-07-29T13:37:26.983Z,32.10
2022-07-29T13:39:55.305Z,31.90
2022-07-29T13:42:23.569Z,31.80
2022-07-29T13:44:52.612Z,31.30
2022-07-29T13:47:21.531Z,30.80
2022-07-29T13:49:50.531Z,30.70
2022-07-29T13:52:21.587Z,30.80
2022-07-29T13:54:49.796Z,31.10
2022-07-29T13:57:20.669Z,31.30
2022-07-29T13:59:53.418Z,31.60
2022-07-29T14:02:25.311Z,31.90
2022-07-29T14:04:56.675Z,31.60
2022-07-29T14:07:24.045Z,31.70
2022-07-29T14:09:52.237Z,31.40
2022-07-29T14:12:20.122Z,31.30
2022-07-29T14:14:47.693Z,31.20
2022-07-29T14:17:18.762Z,30.90
2022-07-29T14:19:46.143Z,30.40
2022-07-29T14:22:13.742Z,30.30
2022-07-29T14:24:41.782Z,30.30
2022-07-29T14:27:12.266Z,30.20
2022-07-29T14:29:39.637Z,30.10
2022-07-29T14:32:08.703Z,30.20
2022-07-29T14:34:37.855Z,30.10
2022-07-29T14:37:09.526Z,29.90
2022-07-29T14:39:44.285Z,29.70
2022-07-29T14:42:14.204Z,29.50
2022-07-29T14:44:44.668Z,29.20
2022-07-29T14:47:12.098Z,28.90
2022-07-29T14:49:39.844Z,29.00
2022-07-29T14:52:11.826Z,28.90
2022-07-29T14:54:39.092Z,28.90
2022-07-29T14:57:07.633Z,28.80
2022-07-29T14:59:37.992Z,28.40
2022-07-29T15:02:09.424Z,28.40
2022-07-29T15:04:41.647Z,28.70
2022-07-29T15:07:11.921Z,29.10
2022-07-29T15:09:40.209Z,29.40
2022-07-29T15:12:16.657Z,29.60
2022-07-29T15:14:44.072Z,29.60
2022-07-29T15:17:13.575Z,29.70
2022-07-29T15:19:45.065Z,29.60
2022-07-29T15:22:12.826Z,29.60
2022-07-29T15:24:40.291Z,29.60
2022-07-29T15:27:14.935Z,29.60
2022-07-29T15:29:43.423Z,29.80
2022-07-29T15:32:11.856Z,29.70
2022-07-29T15:34:46.609Z,29.70
2022-07-29T15:37:16.158Z,29.70
2022-07-29T15:39:43.614Z,29.70
2022-07-29T15:42:10.882Z,29.70
2022-07-29T15:44:40.312Z,29.80
2022-07-29T15:47:07.718Z,29.20
2022-07-29T15:49:46.611Z,29.00
2022-07-29T15:52:24.925Z,28.90
2022-07-29T15:54:56.149Z,29.00
2022-07-29T15:57:24.738Z,28.70
2022-07-29T15:59:52.808Z,28.50
2022-07-29T16:02:20.719Z,28.50
2022-07-29T16:04:48.378Z,28.70
2022-07-29T16:07:16.047Z,28.70
2022-07-29T16:09:50.828Z,28.80
2022-07-29T16:12:22.501Z,28.80
2022-07-29T16:14:52.476Z,28.70
2022-07-29T16:17:21.649Z,28.80
2022-07-29T16:19:49.059Z,28.80
2022-07-29T16:22:21.750Z,28.90
2022-07-29T16:24:49.054Z,28.90
2022-07-29T16:27:16.370Z,29.00
2022-07-29T16:29:43.829Z,28.90
2022-07-29T16:32:11.645Z,28.70
2022-07-29T16:34:41.066Z,28.50
2022-07-29T16:37:08.315Z,28.30
2022-07-29T16:39:35.568Z,28.20
2022-07-29T16:42:05.329Z,28.10
2022-07-29T16:44:34.109Z,28.00
2022-07-29T16:47:02.769Z,28.10
2022-07-29T16:49:31.976Z,27.90
2022-07-29T16:51:59.380Z,27.90
2022-07-29T16:54:26.823Z,28.00
2022-07-29T16:56:56.778Z,28.00
2022-07-29T16:59:24.816Z,27.80
2022-07-29T17:01:52.189Z,27.80
2022-07-29T17:04:19.480Z,27.80
2022-07-29T17:06:50.449Z,27.90
2022-07-29T17:09:22.378Z,27.90
2022-07-29T17:11:55.924Z,27.90
2022-07-29T17:14:25.429Z,27.90
2022-07-29T17:17:01.298Z,27.70
2022-07-29T17:19:31.763Z,27.70
2022-07-29T17:22:15.466Z,27.70
2022-07-29T17:24:48.929Z,27.60
2022-07-29T17:27:16.981Z,27.60
2022-07-29T17:29:49.493Z,27.60
2022-07-29T17:32:19.111Z,27.60
2022-07-29T17:34:46.426Z,27.60
2022-07-29T17:37:13.713Z,27.60
2022-07-29T17:39:42.305Z,27.70
2022-07-29T17:42:14.324Z,27.50
2022-07-29T17:44:42.680Z,27.40
2022-07-29T17:47:15.969Z,27.40
2022-07-29T17:49:45.861Z,27.40
2022-07-29T17:52:31.072Z,27.40
2022-07-29T17:54:58.804Z,27.40
2022-07-29T17:57:26.092Z,27.30
2022-07-29T17:59:53.340Z,27.20
2022-07-29T18:02:20.641Z,27.20
2022-07-29T18:04:50.652Z,27.10
2022-07-29T18:07:20.695Z,27.10
2022-07-29T18:09:50.438Z,27.00
2022-07-29T18:12:17.719Z,26.80
2022-07-29T18:14:47.576Z,26.70
2022-07-29T18:17:50.489Z,26.60
2022-07-29T18:20:07.152Z,26.50
2022-07-29T18:22:36.955Z,26.30
2022-07-29T18:25:04.489Z,26.30
2022-07-29T18:27:31.768Z,26.20
2022-07-29T18:29:59.462Z,26.10
2022-07-29T18:32:32.129Z,26.10
2022-07-29T18:35:02.583Z,26.10
2022-07-29T18:38:01.640Z,26.00
2022-07-29T18:40:21.041Z,25.90
2022-07-29T18:42:48.819Z,25.80
2022-07-29T18:45:19.549Z,25.70
2022-07-29T18:47:49.363Z,25.70
2022-07-29T18:50:17.365Z,25.60
2022-07-29T18:52:47.272Z,25.50
2022-07-29T18:55:16.938Z,25.40
2022-07-29T18:57:54.588Z,25.30
2022-07-29T19:00:23.885Z,25.40
2022-07-29T19:02:51.838Z,25.40
2022-07-29T19:05:28.410Z,25.50
2022-07-29T19:07:56.243Z,25.50
2022-07-29T19:10:23.598Z,25.40
2022-07-29T19:12:50.871Z,25.30
2022-07-29T19:15:20.881Z,25.30
2022-07-29T19:17:53.996Z,25.10
2022-07-29T19:20:27.540Z,24.90
2022-07-29T19:22:55.382Z,24.90
2022-07-29T19:25:23.249Z,24.90
2022-07-29T19:27:53.394Z,24.90
2022-07-29T19:30:20.881Z,25.00
2022-07-29T19:32:52.797Z,25.10
2022-07-29T19:35:31.249Z,24.90
2022-07-29T19:38:00.673Z,24.90
2022-07-29T19:40:29.021Z,24.80
2022-07-29T19:42:57.047Z,24.70
2022-07-29T19:48:14.782Z,24.80
2022-07-29T19:50:42.370Z,24.80
2022-07-29T19:53:12.112Z,24.80
2022-07-29T19:55:42.417Z,24.70
2022-07-29T19:58:10.331Z,24.80
2022-07-29T20:00:37.949Z,24.70
2022-07-29T20:03:10.154Z,24.50
2022-07-29T20:05:37.775Z,24.50
2022-07-29T20:08:06.237Z,24.50
2022-07-29T20:10:34.243Z,24.50
2022-07-29T20:13:01.753Z,24.40
2022-07-29T20:15:29.115Z,24.40
2022-07-29T20:17:57.611Z,24.30
2022-07-29T20:20:25.308Z,24.30
2022-07-29T20:22:53.504Z,24.30
2022-07-29T20:25:28.267Z,24.20
2022-07-29T20:27:56.078Z,24.10
2022-07-29T20:30:29.049Z,24.00
2022-07-29T20:32:58.585Z,24.00
2022-07-29T20:35:30.146Z,24.00
2022-07-29T20:37:57.517Z,24.00
2022-07-29T20:40:25.931Z,23.90
2022-07-29T20:42:57.070Z,23.70
2022-07-29T20:45:24.887Z,23.60
2022-07-29T20:47:52.695Z,23.50
2022-07-29T20:50:24.482Z,23.40
2022-07-29T20:52:52.497Z,23.30
2022-07-29T20:55:20.012Z,23.30
2022-07-29T20:57:49.816Z,23.20
2022-07-29T21:00:17.276Z,23.20
2022-07-29T21:02:44.740Z,23.20
2022-07-29T21:05:12.609Z,23.20
2022-07-29T21:07:41.992Z,23.20
2022-07-29T21:10:09.704Z,23.10
2022-07-29T21:12:37.060Z,23.10
2022-07-29T21:15:06.584Z,23.10
2022-07-29T21:17:35.997Z,23.10
2022-07-29T21:20:11.381Z,23.00
2022-07-29T21:22:41.554Z,22.90
2022-07-29T21:25:11.609Z,22.80
2022-07-29T21:27:57.081Z,22.70
2022-07-29T21:30:24.876Z,22.70
2022-07-29T21:32:52.275Z,22.60
2022-07-29T21:35:35.687Z,22.70
2022-07-29T21:38:07.261Z,22.70
2022-07-29T21:40:34.584Z,22.70
2022-07-29T21:43:06.486Z,22.70
2022-07-29T21:45:34.215Z,22.60
2022-07-29T21:48:01.567Z,22.60
2022-07-29T21:50:29.344Z,22.40
2022-07-29T21:52:56.710Z,22.30
2022-07-29T21:55:25.699Z,22.30
2022-07-29T21:57:57.651Z,22.20
2022-07-29T22:00:25.831Z,21.90
2022-07-29T22:02:53.529Z,21.90
2022-07-29T22:05:25.699Z,21.80
2022-07-29T22:07:56.521Z,21.60
2022-07-29T22:10:28.705Z,21.60
2022-07-29T22:13:00.479Z,21.70
2022-07-29T22:15:28.482Z,21.70
2022-07-29T22:17:55.945Z,21.70
2022-07-29T22:20:24.095Z,21.60
2022-07-29T22:22:51.595Z,21.70
2022-07-29T22:25:19.015Z,21.60
2022-07-29T22:27:46.539Z,21.70
2022-07-29T22:30:14.626Z,21.70
2022-07-29T22:32:45.651Z,21.60
2022-07-29T22:35:13.227Z,21.60
2022-07-29T22:37:40.540Z,21.60
2022-07-29T22:40:08.594Z,21.40
2022-07-29T22:42:36.574Z,21.40
2022-07-29T22:45:10.166Z,21.50
2022-07-29T22:47:47.881Z,21.50
2022-07-29T22:50:17.737Z,21.50
2022-07-29T22:52:46.069Z,21.50
2022-07-29T22:55:14.216Z,21.40
2022-07-29T22:57:41.669Z,21.30
2022-07-29T23:00:10.744Z,21.30
2022-07-29T23:02:41.432Z,21.10
2022-07-29T23:05:10.397Z,21.00
2022-07-29T23:07:37.922Z,20.90
2022-07-29T23:10:08.220Z,21.00
2022-07-29T23:12:35.664Z,21.00
2022-07-29T23:15:04.572Z,21.00
2022-07-29T23:17:32.307Z,20.90
2022-07-29T23:20:10.783Z,20.90
2022-07-29T23:22:40.884Z,20.90
2022-07-29T23:25:09.030Z,21.00
2022-07-29T23:27:36.819Z,20.90
2022-07-29T23:30:04.983Z,20.80
2022-07-29T23:32:32.348Z,20.80
2022-07-29T23:35:02.309Z,20.60
2022-07-29T23:37:29.802Z,20.60
2022-07-29T23:39:57.584Z,20.60
2022-07-29T23:42:25.795Z,20.60
2022-07-29T23:44:53.167Z,20.60
2022-07-29T23:47:20.442Z,20.60
2022-07-29T23:49:49.879Z,20.50
2022-07-29T23:52:18.034Z,20.50
2022-07-29T23:54:47.432Z,20.30
2022-07-29T23:57:17.781Z,20.30
2022-07-29T23:59:47.368Z,20.20
